createdAt,value
2018-05-27T00:01:32.631Z,2.10
2018-05-27T00:04:00.264Z,2.42
2018-05-27T00:06:28.708Z,2.40
2018-05-27T00:08:56.337Z,2.00
2018-05-27T00:11:24.774Z,1.83
2018-05-27T00:13:52.474Z,2.85
2018-05-27T00:16:20.133Z,2.50
2018-05-27T00:18:47.779Z,2.20
2018-05-27T00:21:15.463Z,2.17
2018-05-27T00:23:43.106Z,2.70
2018-05-27T00:26:10.800Z,2.28
2018-05-27T00:28:38.483Z,2.15
2018-05-27T00:31:06.160Z,2.65
2018-05-27T00:33:33.796Z,2.20
2018-05-27T00:36:02.225Z,2.03
2018-05-27T00:38:29.869Z,2.10
2018-05-27T00:40:57.532Z,1.85
2018-05-27T00:43:25.941Z,2.20
2018-05-27T00:45:53.628Z,2.30
2018-05-27T00:48:21.279Z,1.75
2018-05-27T00:50:48.908Z,2.17
2018-05-27T00:53:16.589Z,2.17
2018-05-27T00:55:44.996Z,2.17
2018-05-27T00:58:13.449Z,2.40
2018-05-27T01:00:41.133Z,2.00
2018-05-27T01:03:08.845Z,2.62
2018-05-27T01:05:37.249Z,1.83
2018-05-27T01:08:04.960Z,2.20
2018-05-27T01:10:32.600Z,2.15
2018-05-27T01:13:00.275Z,2.20
2018-05-27T01:15:27.932Z,1.93
2018-05-27T01:17:55.618Z,2.20
2018-05-27T01:20:24.034Z,2.30
2018-05-27T01:22:51.695Z,2.20
2018-05-27T01:25:19.341Z,1.77
2018-05-27T01:27:47.805Z,1.90
2018-05-27T01:30:15.428Z,2.20
2018-05-27T01:32:43.069Z,1.90
2018-05-27T01:35:10.764Z,2.15
2018-05-27T01:37:39.199Z,2.10
2018-05-27T01:40:06.901Z,1.83
2018-05-27T01:42:34.541Z,2.22
2018-05-27T01:45:02.216Z,2.30
2018-05-27T01:47:29.853Z,2.20
2018-05-27T01:49:57.520Z,2.42
2018-05-27T01:52:25.921Z,2.10
2018-05-27T01:54:53.600Z,2.15
2018-05-27T01:57:21.256Z,2.50
2018-05-27T01:59:49.705Z,2.25
2018-05-27T02:02:17.344Z,2.00
2018-05-27T02:04:45.016Z,2.33
2018-05-27T02:07:12.687Z,2.60
2018-05-27T02:09:40.385Z,2.45
2018-05-27T02:12:08.059Z,1.90
2018-05-27T02:14:35.717Z,2.40
2018-05-27T02:17:03.400Z,2.22
2018-05-27T02:19:31.037Z,2.45
2018-05-27T02:21:59.468Z,2.42
2018-05-27T02:24:27.109Z,2.10
2018-05-27T02:26:54.781Z,2.40
2018-05-27T02:29:23.206Z,2.33
2018-05-27T02:31:50.881Z,2.28
2018-05-27T02:34:18.512Z,2.08
2018-05-27T02:36:46.944Z,2.30
2018-05-27T02:39:14.593Z,2.33
2018-05-27T02:41:42.276Z,2.37
2018-05-27T02:44:09.915Z,2.12
2018-05-27T02:46:38.376Z,2.47
2018-05-27T02:49:06.017Z,2.75
2018-05-27T02:51:33.723Z,2.30
2018-05-27T02:54:01.405Z,2.30
2018-05-27T02:56:29.097Z,2.25
2018-05-27T02:58:56.730Z,2.60
2018-05-27T03:01:24.365Z,2.60
2018-05-27T03:03:52.049Z,2.33
2018-05-27T03:06:19.692Z,2.40
2018-05-27T03:08:47.373Z,2.37
2018-05-27T03:11:15.013Z,2.60
2018-05-27T03:13:42.748Z,2.35
2018-05-27T03:16:10.419Z,2.75
2018-05-27T03:18:38.128Z,2.40
2018-05-27T03:21:05.761Z,2.53
2018-05-27T03:23:34.192Z,2.67
2018-05-27T03:26:01.821Z,2.70
2018-05-27T03:28:30.257Z,2.80
2018-05-27T03:30:57.901Z,2.75
2018-05-27T03:33:25.572Z,2.50
2018-05-27T03:35:53.221Z,2.20
2018-05-27T03:38:20.897Z,2.58
2018-05-27T03:40:49.303Z,2.62
2018-05-27T03:43:16.984Z,2.53
2018-05-27T03:45:44.641Z,2.60
2018-05-27T03:48:13.094Z,2.70
2018-05-27T03:50:40.757Z,2.50
2018-05-27T03:53:08.461Z,2.40
2018-05-27T03:55:36.107Z,3.00
2018-05-27T03:58:03.752Z,2.55
2018-05-27T04:00:31.425Z,2.50
2018-05-27T04:02:59.069Z,2.42
2018-05-27T04:05:39.173Z,2.62
2018-05-27T04:08:18.637Z,2.30
2018-05-27T04:10:46.273Z,2.62
2018-05-27T04:13:14.676Z,2.87
2018-05-27T04:15:42.366Z,2.60
2018-05-27T04:18:10.035Z,2.45
2018-05-27T04:20:37.785Z,2.40
2018-05-27T04:23:06.228Z,2.80
2018-05-27T04:25:33.917Z,2.55
2018-05-27T04:28:01.548Z,2.60
2018-05-27T04:30:29.229Z,3.12
2018-05-27T04:32:56.872Z,2.27
2018-05-27T04:35:25.309Z,2.80
2018-05-27T04:37:52.947Z,2.40
2018-05-27T04:40:20.616Z,2.90
2018-05-27T04:42:49.044Z,3.00
2018-05-27T04:45:16.722Z,3.08
2018-05-27T04:47:44.355Z,2.92
2018-05-27T04:50:12.053Z,2.08
2018-05-27T04:52:39.778Z,2.97
2018-05-27T04:55:07.457Z,2.30
2018-05-27T04:57:35.865Z,3.05
2018-05-27T05:00:03.576Z,3.10
2018-05-27T05:02:31.212Z,3.15
2018-05-27T05:04:58.872Z,2.95
2018-05-27T05:07:26.540Z,3.20
2018-05-27T05:09:54.189Z,2.67
2018-05-27T05:12:21.872Z,2.90
2018-05-27T05:14:49.563Z,3.10
2018-05-27T05:17:17.233Z,3.28
2018-05-27T05:19:44.864Z,2.60
2018-05-27T05:22:12.598Z,3.30
2018-05-27T05:24:41.009Z,3.15
2018-05-27T05:27:08.716Z,3.00
2018-05-27T05:29:36.373Z,2.90
2018-05-27T05:32:04.049Z,3.25
2018-05-27T05:34:31.685Z,2.80
2018-05-27T05:36:59.360Z,3.20
2018-05-27T05:39:27.757Z,3.10
2018-05-27T05:41:56.183Z,2.90
2018-05-27T05:44:23.817Z,2.50
2018-05-27T05:46:52.245Z,2.20
2018-05-27T05:49:19.895Z,3.30
2018-05-27T05:51:47.584Z,3.45
2018-05-27T05:54:15.247Z,3.13
2018-05-27T05:56:42.957Z,2.90
2018-05-27T05:59:10.614Z,3.08
2018-05-27T06:01:38.392Z,3.13
2018-05-27T06:04:06.070Z,3.12
2018-05-27T06:06:33.740Z,2.95
2018-05-27T06:09:01.405Z,2.40
2018-05-27T06:11:29.038Z,2.78
2018-05-27T06:13:57.473Z,3.00
2018-05-27T06:16:25.099Z,2.40
2018-05-27T06:18:52.761Z,2.60
2018-05-27T06:21:20.398Z,2.80
2018-05-27T06:23:48.063Z,2.83
2018-05-27T06:26:15.716Z,2.50
2018-05-27T06:28:43.425Z,2.60
2018-05-27T06:31:11.080Z,2.25
2018-05-27T06:33:38.795Z,2.80
2018-05-27T06:36:06.485Z,2.90
2018-05-27T06:38:34.152Z,2.97
2018-05-27T06:41:01.798Z,2.50
2018-05-27T06:43:29.472Z,2.70
2018-05-27T06:45:57.102Z,2.62
2018-05-27T06:48:25.557Z,2.10
2018-05-27T06:50:53.189Z,2.28
2018-05-27T06:53:20.824Z,2.10
2018-05-27T06:55:48.521Z,2.30
2018-05-27T06:58:16.173Z,2.30
2018-05-27T07:00:43.852Z,2.60
2018-05-27T07:03:12.281Z,2.55
2018-05-27T07:05:39.989Z,2.85
2018-05-27T07:08:07.655Z,2.60
2018-05-27T07:10:35.328Z,2.33
2018-05-27T07:13:02.960Z,2.20
2018-05-27T07:15:30.676Z,2.50
2018-05-27T07:17:58.321Z,2.90
2018-05-27T07:20:25.993Z,2.62
2018-05-27T07:22:53.675Z,2.70
2018-05-27T07:25:21.357Z,2.83
2018-05-27T07:27:49.014Z,2.60
2018-05-27T07:30:16.684Z,2.47
2018-05-27T07:32:44.420Z,2.33
2018-05-27T07:35:12.133Z,2.67
2018-05-27T07:37:39.796Z,2.80
2018-05-27T07:40:08.277Z,2.42
2018-05-27T07:42:36.719Z,2.78
2018-05-27T07:45:04.413Z,2.00
2018-05-27T07:47:32.081Z,2.80
2018-05-27T07:49:59.791Z,2.42
2018-05-27T07:52:28.286Z,2.08
2018-05-27T07:54:55.912Z,2.00
2018-05-27T07:57:23.589Z,2.07
2018-05-27T07:59:51.211Z,2.45
2018-05-27T08:02:19.648Z,2.20
2018-05-27T08:04:47.293Z,2.55
2018-05-27T08:07:15.009Z,2.63
2018-05-27T08:09:42.645Z,2.12
2018-05-27T08:12:10.341Z,2.55
2018-05-27T08:14:38.002Z,2.60
2018-05-27T08:17:05.688Z,2.70
2018-05-27T08:19:33.314Z,2.72
2018-05-27T08:22:01.752Z,2.90
2018-05-27T08:24:29.476Z,2.30
2018-05-27T08:26:57.956Z,2.70
2018-05-27T08:29:25.603Z,2.80
2018-05-27T08:31:53.285Z,2.60
2018-05-27T08:34:20.917Z,2.55
2018-05-27T08:36:48.589Z,2.40
2018-05-27T08:39:16.220Z,2.50
2018-05-27T08:41:43.957Z,2.17
2018-05-27T08:44:11.700Z,2.23
2018-05-27T08:46:39.357Z,2.10
2018-05-27T08:49:07.814Z,2.00
2018-05-27T08:51:35.456Z,2.17
2018-05-27T08:54:03.130Z,2.30
2018-05-27T08:56:30.872Z,2.40
2018-05-27T08:58:58.641Z,2.00
2018-05-27T09:01:26.313Z,1.98
2018-05-27T09:03:54.017Z,1.92
2018-05-27T09:06:21.665Z,2.22
2018-05-27T09:08:49.348Z,2.10
2018-05-27T09:11:17.748Z,1.90
2018-05-27T09:13:46.185Z,2.10
2018-05-27T09:16:13.916Z,2.22
2018-05-27T09:18:42.596Z,2.10
2018-05-27T09:21:11.109Z,2.10
2018-05-27T09:23:39.676Z,1.90
2018-05-27T09:26:08.129Z,2.23
2018-05-27T09:28:35.814Z,1.75
2018-05-27T09:31:03.480Z,2.00
2018-05-27T09:33:31.172Z,2.00
2018-05-27T09:35:58.862Z,2.00
2018-05-27T09:38:26.497Z,1.90
2018-05-27T09:40:54.314Z,2.10
2018-05-27T09:43:22.037Z,1.90
2018-05-27T09:45:50.279Z,1.90
2018-05-27T09:48:18.904Z,1.90
2018-05-27T09:50:46.585Z,2.30
2018-05-27T09:53:14.308Z,1.85
2018-05-27T09:55:41.994Z,1.98
2018-05-27T09:58:09.687Z,2.00
2018-05-27T10:00:38.125Z,1.80
2018-05-27T10:03:16.225Z,1.70
2018-05-27T10:05:44.669Z,1.83
2018-05-27T10:08:12.348Z,1.70
2018-05-27T10:10:40.013Z,2.03
2018-05-27T10:13:07.661Z,1.70
2018-05-27T10:15:36.174Z,1.77
2018-05-27T10:18:03.931Z,1.80
2018-05-27T10:20:31.661Z,1.70
2018-05-27T10:22:59.370Z,1.80
2018-05-27T10:25:27.819Z,1.80
2018-05-27T10:27:55.452Z,1.63
2018-05-27T10:30:26.659Z,1.80
2018-05-27T10:32:54.453Z,1.60
2018-05-27T10:35:22.148Z,1.60
2018-05-27T10:37:49.845Z,1.80
2018-05-27T10:40:17.528Z,1.50
2018-05-27T10:42:45.222Z,1.50
2018-05-27T10:45:12.861Z,1.60
2018-05-27T10:47:40.585Z,1.75
2018-05-27T10:50:09.025Z,1.37
2018-05-27T10:52:36.701Z,1.50
2018-05-27T10:55:04.364Z,1.60
2018-05-27T10:57:32.041Z,1.60
2018-05-27T10:59:59.695Z,1.70
2018-05-27T11:02:27.376Z,1.60
2018-05-27T11:04:58.071Z,1.60
2018-05-27T11:07:25.753Z,1.60
2018-05-27T11:09:53.436Z,1.90
2018-05-27T11:12:21.157Z,1.60
2018-05-27T11:14:49.612Z,1.70
2018-05-27T11:17:17.323Z,1.42
2018-05-27T11:19:44.960Z,1.60
2018-05-27T11:22:12.624Z,1.67
2018-05-27T11:24:40.309Z,1.70
2018-05-27T11:27:08.009Z,1.60
2018-05-27T11:29:35.640Z,1.50
2018-05-27T11:32:03.284Z,1.57
2018-05-27T11:34:31.732Z,1.50
2018-05-27T11:36:59.422Z,1.45
2018-05-27T11:39:27.070Z,1.60
2018-05-27T11:41:54.713Z,1.60
2018-05-27T11:44:22.376Z,1.42
2018-05-27T11:46:50.802Z,1.75
2018-05-27T11:49:18.485Z,1.65
2018-05-27T11:51:46.123Z,1.50
2018-05-27T11:54:13.840Z,1.55
2018-05-27T11:56:41.483Z,1.50
2018-05-27T11:59:09.152Z,1.60
2018-05-27T12:01:36.797Z,1.60
2018-05-27T12:04:04.494Z,1.50
2018-05-27T12:06:32.226Z,1.77
2018-05-27T12:09:00.019Z,2.25
2018-05-27T12:11:28.616Z,2.10
2018-05-27T12:13:57.034Z,1.85
2018-05-27T12:16:24.710Z,1.90
2018-05-27T12:18:52.351Z,2.10
2018-05-27T12:21:20.034Z,1.92
2018-05-27T12:23:48.463Z,2.00
2018-05-27T12:26:16.149Z,2.20
2018-05-27T12:28:43.798Z,1.90
2018-05-27T12:31:11.473Z,1.90
2018-05-27T12:33:39.111Z,1.90
2018-05-27T12:36:06.785Z,1.90
2018-05-27T12:38:34.457Z,2.05
2018-05-27T12:41:02.176Z,2.03
2018-05-27T12:43:29.865Z,2.00
2018-05-27T12:45:57.552Z,2.10
2018-05-27T12:48:25.188Z,1.98
2018-05-27T12:50:52.855Z,2.00
2018-05-27T12:53:20.497Z,2.05
2018-05-27T12:55:48.194Z,1.77
2018-05-27T12:58:16.592Z,1.80
2018-05-27T13:00:44.268Z,1.80
2018-05-27T13:03:12.665Z,1.80
2018-05-27T13:05:40.288Z,1.70
2018-05-27T13:08:07.964Z,1.60
2018-05-27T13:10:35.588Z,1.87
2018-05-27T13:13:03.308Z,1.90
2018-05-27T13:15:30.964Z,1.80
2018-05-27T13:17:58.704Z,2.05
2018-05-27T13:20:26.341Z,2.30
2018-05-27T13:22:54.020Z,2.00
2018-05-27T13:25:21.804Z,1.97
2018-05-27T13:27:49.497Z,1.98
2018-05-27T13:30:17.908Z,2.00
2018-05-27T13:32:45.576Z,2.00
2018-05-27T13:35:13.204Z,2.00
2018-05-27T13:37:40.876Z,1.90
2018-05-27T13:40:08.508Z,2.00
2018-05-27T13:42:36.189Z,2.10
2018-05-27T13:45:03.938Z,2.05
2018-05-27T13:47:31.625Z,1.90
2018-05-27T13:49:59.297Z,2.00
2018-05-27T13:52:26.928Z,2.10
2018-05-27T13:54:54.604Z,2.00
2018-05-27T13:57:22.237Z,2.00
2018-05-27T13:59:49.921Z,1.90
2018-05-27T14:02:17.626Z,2.15
2018-05-27T14:04:45.333Z,2.10
2018-05-27T14:07:12.974Z,1.77
2018-05-27T14:09:40.647Z,2.00
2018-05-27T14:12:08.291Z,1.85
2018-05-27T14:14:35.956Z,1.80
2018-05-27T14:17:03.633Z,1.90
2018-05-27T14:19:31.377Z,1.73
2018-05-27T14:21:59.030Z,1.70
2018-05-27T14:24:27.478Z,1.67
2018-05-27T14:26:55.120Z,1.80
2018-05-27T14:29:22.780Z,1.80
2018-05-27T14:31:51.185Z,1.77
2018-05-27T14:34:18.868Z,1.60
2018-05-27T14:36:46.496Z,1.60
2018-05-27T14:39:14.141Z,1.65
2018-05-27T14:41:41.819Z,1.40
2018-05-27T14:44:09.449Z,1.27
2018-05-27T14:46:37.125Z,1.67
2018-05-27T14:49:04.902Z,1.50
2018-05-27T14:51:33.376Z,1.52
2018-05-27T14:54:01.070Z,1.70
2018-05-27T14:56:28.748Z,1.40
2018-05-27T14:58:56.384Z,1.57
2018-05-27T15:01:24.052Z,1.40
2018-05-27T15:03:51.686Z,1.50
2018-05-27T15:06:19.370Z,1.80
2018-05-27T15:08:47.029Z,1.70
2018-05-27T15:11:14.717Z,1.70
2018-05-27T15:13:42.359Z,1.60
2018-05-27T15:16:10.031Z,1.77
2018-05-27T15:18:37.763Z,1.60
2018-05-27T15:21:05.403Z,1.50
2018-05-27T15:23:33.122Z,1.90
2018-05-27T15:26:00.798Z,1.80
2018-05-27T15:28:29.282Z,3.47
2018-05-27T15:30:56.912Z,2.20
2018-05-27T15:33:24.583Z,1.98
2018-05-27T15:35:52.253Z,2.00
2018-05-27T15:38:19.960Z,2.00
2018-05-27T15:40:47.604Z,2.20
2018-05-27T15:43:15.272Z,2.55
2018-05-27T15:45:42.904Z,2.15
2018-05-27T15:48:10.592Z,2.10
2018-05-27T15:50:39.001Z,2.30
2018-05-27T15:53:06.675Z,2.28
2018-05-27T15:55:34.335Z,2.30
2018-05-27T15:58:02.042Z,2.40
2018-05-27T16:00:29.684Z,2.25
2018-05-27T16:02:57.377Z,2.43
2018-05-27T16:05:25.072Z,2.42
2018-05-27T16:07:52.732Z,2.62
2018-05-27T16:10:20.382Z,2.30
2018-05-27T16:12:48.832Z,2.30
2018-05-27T16:15:16.473Z,2.12
2018-05-27T16:17:44.183Z,2.28
2018-05-27T16:20:11.824Z,2.57
2018-05-27T16:22:39.460Z,2.70
2018-05-27T16:25:07.934Z,2.50
2018-05-27T16:27:35.574Z,2.87
2018-05-27T16:30:03.300Z,2.90
2018-05-27T16:32:30.973Z,2.93
2018-05-27T16:34:58.704Z,2.78
2018-05-27T16:37:26.363Z,2.62
2018-05-27T16:39:54.029Z,2.58
2018-05-27T16:42:21.669Z,2.80
2018-05-27T16:44:50.101Z,2.67
2018-05-27T16:47:17.765Z,2.50
2018-05-27T16:49:45.437Z,2.33
2018-05-27T16:52:13.060Z,2.60
2018-05-27T16:54:40.768Z,2.50
2018-05-27T16:57:09.172Z,2.30
2018-05-27T16:59:36.852Z,2.37
2018-05-27T17:02:04.573Z,2.87
2018-05-27T17:04:32.264Z,2.33
2018-05-27T17:06:59.929Z,2.40
2018-05-27T17:09:27.628Z,2.40
2018-05-27T17:11:56.071Z,2.80
2018-05-27T17:14:23.709Z,2.80
2018-05-27T17:16:51.389Z,2.67
2018-05-27T17:19:19.012Z,2.95
2018-05-27T17:21:46.685Z,2.47
2018-05-27T17:24:17.605Z,2.20
2018-05-27T17:26:46.040Z,4.32
2018-05-27T17:29:13.688Z,2.37
2018-05-27T17:31:41.381Z,2.30
2018-05-27T17:34:09.033Z,2.28
2018-05-27T17:36:36.757Z,2.00
2018-05-27T17:39:04.459Z,2.20
2018-05-27T17:41:32.900Z,2.10
2018-05-27T17:44:00.533Z,2.10
2018-05-27T17:46:28.224Z,2.28
2018-05-27T17:48:55.906Z,2.13
2018-05-27T17:51:23.592Z,2.22
2018-05-27T17:53:51.233Z,2.33
2018-05-27T17:56:19.660Z,2.30
2018-05-27T17:58:47.304Z,2.33
2018-05-27T18:01:14.978Z,2.47
2018-05-27T18:03:42.673Z,2.60
2018-05-27T18:06:10.404Z,2.40
2018-05-27T18:08:38.067Z,2.45
2018-05-27T18:11:05.711Z,2.45
2018-05-27T18:13:33.388Z,2.50
2018-05-27T18:16:01.021Z,2.37
2018-05-27T18:18:28.697Z,2.30
2018-05-27T18:20:56.328Z,2.37
2018-05-27T18:23:23.993Z,2.50
2018-05-27T18:25:51.629Z,2.17
2018-05-27T18:28:19.305Z,2.40
2018-05-27T18:30:46.981Z,2.30
2018-05-27T18:33:14.700Z,2.60
2018-05-27T18:35:43.124Z,2.50
2018-05-27T18:38:10.835Z,2.20
2018-05-27T18:40:38.473Z,2.10
2018-05-27T18:43:06.154Z,2.20
2018-05-27T18:45:33.809Z,2.03
2018-05-27T18:48:02.270Z,2.10
2018-05-27T18:50:29.903Z,2.30
2018-05-27T18:52:57.572Z,2.03
2018-05-27T18:55:25.200Z,2.25
2018-05-27T18:57:52.836Z,2.50
2018-05-27T19:00:20.500Z,2.55
2018-05-27T19:02:48.172Z,2.60
2018-05-27T19:05:15.856Z,2.42
2018-05-27T19:07:43.504Z,2.47
2018-05-27T19:10:11.188Z,2.20
2018-05-27T19:12:38.820Z,2.50
2018-05-27T19:15:06.530Z,2.45
2018-05-27T19:17:34.186Z,2.30
2018-05-27T19:20:02.634Z,2.40
2018-05-27T19:22:30.276Z,2.10
2018-05-27T19:24:57.945Z,2.70
2018-05-27T19:27:26.439Z,2.40
2018-05-27T19:29:54.104Z,2.50
2018-05-27T19:32:21.732Z,2.30
2018-05-27T19:34:49.421Z,2.12
2018-05-27T19:37:17.062Z,2.20
2018-05-27T19:39:44.751Z,3.20
2018-05-27T19:42:12.438Z,2.87
2018-05-27T19:44:40.104Z,2.78
2018-05-27T19:47:07.738Z,2.87
2018-05-27T19:49:35.364Z,3.47
2018-05-27T19:52:03.041Z,3.00
2018-05-27T19:54:30.673Z,2.92
2018-05-27T19:56:58.341Z,2.90
2018-05-27T19:59:25.978Z,3.00
2018-05-27T20:01:54.412Z,3.00
2018-05-27T20:04:22.053Z,3.50
2018-05-27T20:06:49.732Z,3.50
2018-05-27T20:09:17.393Z,2.80
2018-05-27T20:11:45.090Z,3.30
2018-05-27T20:14:12.738Z,3.00
2018-05-27T20:16:40.409Z,3.22
2018-05-27T20:19:08.815Z,3.40
2018-05-27T20:21:36.491Z,2.47
2018-05-27T20:24:04.137Z,3.10
2018-05-27T20:26:32.576Z,2.65
2018-05-27T20:29:00.215Z,3.03
2018-05-27T20:31:28.661Z,3.20
2018-05-27T20:33:56.296Z,2.80
2018-05-27T20:36:23.934Z,2.65
2018-05-27T20:38:51.596Z,2.70
2018-05-27T20:41:19.260Z,2.62
2018-05-27T20:43:46.961Z,2.78
2018-05-27T20:46:15.425Z,2.60
2018-05-27T20:48:43.112Z,2.60
2018-05-27T20:51:10.749Z,2.58
2018-05-27T20:53:38.456Z,2.25
2018-05-27T20:56:06.097Z,2.92
2018-05-27T20:58:33.772Z,2.87
2018-05-27T21:01:01.412Z,2.75
2018-05-27T21:03:29.845Z,2.35
2018-05-27T21:05:57.480Z,2.40
2018-05-27T21:08:25.148Z,1.98
2018-05-27T21:10:52.788Z,2.22
2018-05-27T21:13:20.483Z,2.30
2018-05-27T21:15:48.237Z,2.80
2018-05-27T21:18:15.926Z,2.67
2018-05-27T21:20:44.396Z,2.27
2018-05-27T21:23:12.053Z,2.20
2018-05-27T21:25:39.721Z,1.97
2018-05-27T21:28:07.373Z,2.10
2018-05-27T21:30:35.045Z,2.47
2018-05-27T21:33:02.680Z,1.90
2018-05-27T21:35:30.352Z,2.75
2018-05-27T21:37:58.004Z,2.53
2018-05-27T21:40:25.688Z,2.37
2018-05-27T21:42:53.321Z,2.37
2018-05-27T21:45:21.000Z,2.40
2018-05-27T21:47:48.649Z,2.17
2018-05-27T21:50:17.092Z,2.53
2018-05-27T21:52:44.745Z,2.50
2018-05-27T21:55:12.414Z,2.90
2018-05-27T21:57:40.052Z,2.70
2018-05-27T22:00:08.505Z,2.20
2018-05-27T22:02:36.169Z,2.28
2018-05-27T22:05:03.853Z,2.47
2018-05-27T22:07:31.521Z,2.30
2018-05-27T22:09:59.152Z,2.65
2018-05-27T22:12:26.832Z,2.65
2018-05-27T22:14:54.452Z,2.23
2018-05-27T22:17:22.124Z,2.30
2018-05-27T22:19:49.792Z,2.35
2018-05-27T22:22:17.518Z,2.10
2018-05-27T22:24:46.000Z,2.50
2018-05-27T22:27:14.461Z,2.10
2018-05-27T22:29:42.097Z,2.37
2018-05-27T22:32:09.764Z,2.65
2018-05-27T22:34:37.396Z,2.50
2018-05-27T22:37:05.066Z,2.40
2018-05-27T22:39:32.709Z,2.30
2018-05-27T22:42:00.381Z,2.73
2018-05-27T22:44:28.009Z,2.65
2018-05-27T22:46:56.440Z,2.90
2018-05-27T22:49:24.124Z,2.47
2018-05-27T22:51:51.752Z,2.60
2018-05-27T22:54:20.188Z,2.60
2018-05-27T22:56:47.840Z,2.40
2018-05-27T22:59:15.568Z,3.10
2018-05-27T23:01:43.228Z,2.70
2018-05-27T23:04:10.892Z,2.70
2018-05-27T23:06:38.532Z,2.62
2018-05-27T23:09:06.225Z,2.60
2018-05-27T23:11:33.857Z,2.72
2018-05-27T23:14:02.316Z,2.75
2018-05-27T23:16:29.952Z,2.72
2018-05-27T23:18:57.620Z,2.75
2018-05-27T23:21:25.260Z,2.85
2018-05-27T23:23:53.712Z,2.90
2018-05-27T23:26:21.348Z,3.03
2018-05-27T23:28:49.077Z,2.83
2018-05-27T23:31:16.735Z,2.72
2018-05-27T23:33:44.420Z,2.60
2018-05-27T23:36:12.157Z,2.57
2018-05-27T23:38:39.764Z,2.47
2018-05-27T23:41:07.396Z,2.80
2018-05-27T23:43:35.063Z,2.87
2018-05-27T23:46:03.485Z,2.87
2018-05-27T23:48:31.174Z,2.80
2018-05-27T23:50:58.801Z,3.05
2018-05-27T23:53:27.252Z,2.90
2018-05-27T23:55:54.921Z,3.13
2018-05-27T23:58:22.565Z,2.65
